createdAt,value
2017-10-24T00:00:32.307Z,11.90
2017-10-24T00:03:00.731Z,11.90
2017-10-24T00:05:29.111Z,11.90
2017-10-24T00:07:57.610Z,11.90
2017-10-24T00:10:26.751Z,11.90
2017-10-24T00:12:55.367Z,11.90
2017-10-24T00:15:23.755Z,11.80
2017-10-24T00:17:52.175Z,11.90
2017-10-24T00:20:20.567Z,11.80
2017-10-24T00:22:49.806Z,11.80
2017-10-24T00:25:18.182Z,11.80
2017-10-24T00:27:46.564Z,11.80
2017-10-24T00:30:15.103Z,11.80
2017-10-24T00:32:43.389Z,11.80
2017-10-24T00:35:11.662Z,11.80
2017-10-24T00:37:41.155Z,11.80
2017-10-24T00:40:10.682Z,11.90
2017-10-24T00:42:39.081Z,11.70
2017-10-24T00:45:07.575Z,11.80
2017-10-24T00:47:35.953Z,11.80
2017-10-24T00:50:04.329Z,11.90
2017-10-24T00:52:32.709Z,11.80
2017-10-24T00:55:05.153Z,11.90
2017-10-24T00:57:32.856Z,11.80
2017-10-24T01:00:02.015Z,11.80
2017-10-24T01:02:30.420Z,11.80
2017-10-24T01:04:58.803Z,11.80
2017-10-24T01:07:27.945Z,11.80
2017-10-24T01:09:56.469Z,11.80
2017-10-24T01:12:24.853Z,11.80
2017-10-24T01:14:53.227Z,11.90
2017-10-24T01:17:21.437Z,11.90
2017-10-24T01:19:49.265Z,11.90
2017-10-24T01:22:17.153Z,11.90
2017-10-24T01:24:45.419Z,12.00
2017-10-24T01:27:14.018Z,12.00
2017-10-24T01:29:42.289Z,12.00
2017-10-24T01:32:10.558Z,12.00
2017-10-24T01:34:38.855Z,12.00
2017-10-24T01:37:06.560Z,12.00
2017-10-24T01:39:34.242Z,12.00
2017-10-24T01:42:01.934Z,12.00
2017-10-24T01:44:29.622Z,12.00
2017-10-24T01:46:57.314Z,12.00
2017-10-24T01:49:25.350Z,12.00
2017-10-24T01:51:53.038Z,12.00
2017-10-24T01:54:20.733Z,12.00
2017-10-24T01:56:49.185Z,12.10
2017-10-24T01:59:16.878Z,12.10
2017-10-24T02:01:45.670Z,12.10
2017-10-24T02:04:14.817Z,12.10
2017-10-24T02:06:43.207Z,12.10
2017-10-24T02:09:10.886Z,12.10
2017-10-24T02:11:38.961Z,12.10
2017-10-24T02:14:06.637Z,12.10
2017-10-24T02:16:35.497Z,12.10
2017-10-24T02:19:03.524Z,12.10
2017-10-24T02:21:31.210Z,12.10
2017-10-24T02:23:59.604Z,12.10
2017-10-24T02:26:27.988Z,12.10
2017-10-24T02:28:56.365Z,12.10
2017-10-24T02:31:24.759Z,12.10
2017-10-24T02:33:53.136Z,12.10
2017-10-24T02:36:21.519Z,12.10
2017-10-24T02:38:50.157Z,12.10
2017-10-24T02:41:18.533Z,12.10
2017-10-24T02:43:46.913Z,12.10
2017-10-24T02:46:16.322Z,12.00
2017-10-24T02:48:44.695Z,12.00
2017-10-24T02:51:12.745Z,12.00
2017-10-24T02:53:41.110Z,12.00
2017-10-24T02:56:09.256Z,12.00
2017-10-24T02:58:37.635Z,12.00
2017-10-24T03:01:06.032Z,12.00
2017-10-24T03:03:35.190Z,12.00
2017-10-24T03:06:03.565Z,12.00
2017-10-24T03:08:31.949Z,12.00
2017-10-24T03:10:59.634Z,12.00
2017-10-24T03:13:28.793Z,12.00
2017-10-24T03:15:57.173Z,12.10
2017-10-24T03:18:25.550Z,12.10
2017-10-24T03:20:53.341Z,12.10
2017-10-24T03:23:21.732Z,12.10
2017-10-24T03:25:50.897Z,12.10
2017-10-24T03:28:18.954Z,12.10
2017-10-24T03:30:47.330Z,12.10
2017-10-24T03:33:15.825Z,12.10
2017-10-24T03:35:44.210Z,12.10
2017-10-24T03:38:12.588Z,12.10
2017-10-24T03:40:40.968Z,12.10
2017-10-24T03:43:09.341Z,12.20
2017-10-24T03:45:37.746Z,12.20
2017-10-24T03:48:06.124Z,12.20
2017-10-24T03:50:35.269Z,12.30
2017-10-24T03:53:03.659Z,12.20
2017-10-24T03:55:32.051Z,12.30
2017-10-24T03:58:00.465Z,12.30
2017-10-24T04:00:29.606Z,12.30
2017-10-24T04:02:57.981Z,12.30
2017-10-24T04:05:26.189Z,12.40
2017-10-24T04:07:54.575Z,12.40
2017-10-24T04:10:22.974Z,12.40
2017-10-24T04:12:51.367Z,12.40
2017-10-24T04:15:19.737Z,12.40
2017-10-24T04:17:48.121Z,12.40
2017-10-24T04:20:16.351Z,12.40
2017-10-24T04:22:44.572Z,12.40
2017-10-24T04:25:12.757Z,12.40
2017-10-24T04:27:41.135Z,12.40
2017-10-24T04:30:09.522Z,12.40
2017-10-24T04:32:37.903Z,12.40
2017-10-24T04:35:06.125Z,12.40
2017-10-24T04:37:35.141Z,12.40
2017-10-24T04:40:03.510Z,12.30
2017-10-24T04:42:32.695Z,12.40
2017-10-24T04:45:02.205Z,12.40
2017-10-24T04:47:31.746Z,12.40
2017-10-24T04:50:01.827Z,12.40
2017-10-24T04:52:30.975Z,12.40
2017-10-24T04:55:00.399Z,12.40
2017-10-24T04:57:28.765Z,12.40
2017-10-24T04:59:57.157Z,12.40
2017-10-24T05:02:25.533Z,12.50
2017-10-24T05:04:53.933Z,12.40
2017-10-24T05:07:23.082Z,12.40
2017-10-24T05:09:51.464Z,12.50
2017-10-24T05:12:19.853Z,12.40
2017-10-24T05:14:48.231Z,12.40
2017-10-24T05:17:16.641Z,12.40
2017-10-24T05:19:44.838Z,12.40
2017-10-24T05:22:13.982Z,12.50
2017-10-24T05:24:42.365Z,12.50
2017-10-24T05:27:10.745Z,12.50
2017-10-24T05:29:39.155Z,12.50
2017-10-24T05:32:07.780Z,12.50
2017-10-24T05:34:35.809Z,12.50
2017-10-24T05:37:04.959Z,12.50
2017-10-24T05:39:33.329Z,12.50
2017-10-24T05:42:01.818Z,12.60
2017-10-24T05:44:30.223Z,12.60
2017-10-24T05:46:58.601Z,12.60
2017-10-24T05:49:26.982Z,12.60
2017-10-24T05:51:55.354Z,12.60
2017-10-24T05:54:23.558Z,12.60
2017-10-24T05:56:51.770Z,12.60
2017-10-24T05:59:20.153Z,12.70
2017-10-24T06:01:48.534Z,12.70
2017-10-24T06:04:16.904Z,12.70
2017-10-24T06:06:45.291Z,12.70
2017-10-24T06:09:13.669Z,12.70
2017-10-24T06:11:42.992Z,12.70
2017-10-24T06:14:11.381Z,12.70
2017-10-24T06:16:39.753Z,12.70
2017-10-24T06:19:08.149Z,12.70
2017-10-24T06:21:37.291Z,12.80
2017-10-24T06:24:05.672Z,12.80
2017-10-24T06:26:34.062Z,12.80
2017-10-24T06:29:02.442Z,12.80
2017-10-24T06:31:30.830Z,12.70
2017-10-24T06:33:59.205Z,12.80
2017-10-24T06:36:27.578Z,12.70
2017-10-24T06:38:55.978Z,12.70
2017-10-24T06:41:24.349Z,12.70
2017-10-24T06:43:52.556Z,12.80
2017-10-24T06:46:21.697Z,12.80
2017-10-24T06:48:50.072Z,12.80
2017-10-24T06:51:18.465Z,12.70
2017-10-24T06:53:46.845Z,12.70
2017-10-24T06:56:15.237Z,12.70
2017-10-24T06:58:43.432Z,12.70
2017-10-24T07:01:12.570Z,12.60
2017-10-24T07:03:40.765Z,12.60
2017-10-24T07:06:08.958Z,12.60
2017-10-24T07:08:37.350Z,12.60
2017-10-24T07:11:05.959Z,12.60
2017-10-24T07:13:34.142Z,12.60
2017-10-24T07:16:02.547Z,12.60
2017-10-24T07:18:30.933Z,12.60
2017-10-24T07:20:59.349Z,12.60
2017-10-24T07:23:28.520Z,12.70
2017-10-24T07:25:56.910Z,12.70
2017-10-24T07:28:26.810Z,12.80
2017-10-24T07:30:55.193Z,12.80
2017-10-24T07:33:23.734Z,12.90
2017-10-24T07:35:53.192Z,13.00
2017-10-24T07:38:22.416Z,13.10
2017-10-24T07:40:50.814Z,13.10
2017-10-24T07:43:19.195Z,13.20
2017-10-24T07:45:47.256Z,13.30
2017-10-24T07:48:15.623Z,13.40
2017-10-24T07:50:44.358Z,13.40
2017-10-24T07:53:12.746Z,13.50
2017-10-24T07:55:40.942Z,13.50
2017-10-24T07:58:10.113Z,13.60
2017-10-24T08:00:38.492Z,13.60
2017-10-24T08:03:06.688Z,13.60
2017-10-24T08:05:35.849Z,13.70
2017-10-24T08:08:04.228Z,13.70
2017-10-24T08:10:32.695Z,13.70
2017-10-24T08:13:01.086Z,13.60
2017-10-24T08:15:29.562Z,13.70
2017-10-24T08:17:57.952Z,13.50
2017-10-24T08:20:26.342Z,13.60
2017-10-24T08:22:54.802Z,13.70
2017-10-24T08:25:23.190Z,13.60
2017-10-24T08:27:51.575Z,13.70
2017-10-24T08:30:19.630Z,13.70
2017-10-24T08:32:48.006Z,13.80
2017-10-24T08:35:16.414Z,13.80
2017-10-24T08:37:45.566Z,14.00
2017-10-24T08:40:13.989Z,14.00
2017-10-24T08:42:43.149Z,14.20
2017-10-24T08:45:11.587Z,14.20
2017-10-24T08:47:40.021Z,14.30
2017-10-24T08:50:08.205Z,14.20
2017-10-24T08:52:36.587Z,14.40
2017-10-24T08:55:04.276Z,14.40
2017-10-24T08:57:32.304Z,14.50
2017-10-24T09:00:00.457Z,14.50
2017-10-24T09:02:28.835Z,14.60
2017-10-24T09:04:57.301Z,14.70
2017-10-24T09:07:27.804Z,14.80
2017-10-24T09:09:56.187Z,14.80
2017-10-24T09:12:24.832Z,14.90
2017-10-24T09:14:53.220Z,14.90
2017-10-24T09:17:33.609Z,14.90
2017-10-24T09:20:01.297Z,14.90
2017-10-24T09:22:30.406Z,14.90
2017-10-24T09:24:59.959Z,14.80
2017-10-24T09:27:29.121Z,14.80
2017-10-24T09:29:57.498Z,14.80
2017-10-24T09:32:30.376Z,14.90
2017-10-24T09:34:58.561Z,15.00
2017-10-24T09:37:26.748Z,15.10
2017-10-24T09:39:55.749Z,15.30
2017-10-24T09:42:24.711Z,15.30
2017-10-24T09:44:53.194Z,15.20
2017-10-24T09:47:21.593Z,15.30
2017-10-24T09:49:56.871Z,15.30
2017-10-24T09:52:24.574Z,15.20
2017-10-24T09:54:52.589Z,15.30
2017-10-24T09:57:20.624Z,15.50
2017-10-24T09:59:48.658Z,15.60
2017-10-24T10:02:17.059Z,15.70
2017-10-24T10:04:45.432Z,15.80
2017-10-24T10:07:13.814Z,15.80
2017-10-24T10:09:42.189Z,15.80
2017-10-24T10:12:11.349Z,15.90
2017-10-24T10:14:39.732Z,15.80
2017-10-24T10:17:08.117Z,15.90
2017-10-24T10:19:36.513Z,16.00
2017-10-24T10:22:05.174Z,16.20
2017-10-24T10:24:37.758Z,16.20
2017-10-24T10:27:06.807Z,16.30
2017-10-24T10:29:36.349Z,16.20
2017-10-24T10:32:04.395Z,16.20
2017-10-24T10:34:33.198Z,16.10
2017-10-24T10:37:01.589Z,16.00
2017-10-24T10:39:29.969Z,16.10
2017-10-24T10:41:58.346Z,16.20
2017-10-24T10:44:26.733Z,16.20
2017-10-24T10:46:55.877Z,16.10
2017-10-24T10:49:25.050Z,15.90
2017-10-24T10:51:53.426Z,15.80
2017-10-24T10:54:22.974Z,15.60
2017-10-24T10:56:51.358Z,15.60
2017-10-24T10:59:19.776Z,15.60
2017-10-24T11:01:48.833Z,15.60
2017-10-24T11:04:18.969Z,15.60
2017-10-24T11:06:48.629Z,15.70
2017-10-24T11:09:18.287Z,16.00
2017-10-24T11:11:46.917Z,15.90
2017-10-24T11:14:16.418Z,16.00
2017-10-24T11:16:47.474Z,16.10
2017-10-24T11:19:17.133Z,16.10
2017-10-24T11:21:46.885Z,16.00
2017-10-24T11:24:16.384Z,16.00
2017-10-24T11:26:46.107Z,16.00
2017-10-24T11:29:14.611Z,16.00
2017-10-24T11:31:43.102Z,15.90
2017-10-24T11:34:11.509Z,16.00
2017-10-24T11:36:39.916Z,15.90
2017-10-24T11:39:08.302Z,15.90
2017-10-24T11:41:37.558Z,15.90
2017-10-24T11:44:06.825Z,16.00
2017-10-24T11:46:35.318Z,16.00
2017-10-24T11:49:03.716Z,16.00
2017-10-24T11:51:32.091Z,16.00
2017-10-24T11:54:00.591Z,16.00
2017-10-24T11:56:28.981Z,16.00
2017-10-24T11:58:57.354Z,16.00
2017-10-24T12:01:25.734Z,15.90
2017-10-24T12:03:54.113Z,15.90
2017-10-24T12:06:22.501Z,15.80
2017-10-24T12:08:50.869Z,15.70
2017-10-24T12:11:19.249Z,15.50
2017-10-24T12:13:47.639Z,15.40
2017-10-24T12:16:16.784Z,15.40
2017-10-24T12:18:45.170Z,15.40
2017-10-24T12:21:13.550Z,15.40
2017-10-24T12:23:41.943Z,15.30
2017-10-24T12:26:09.982Z,15.40
2017-10-24T12:28:38.376Z,15.40
2017-10-24T12:31:06.764Z,15.30
2017-10-24T12:33:35.145Z,15.30
2017-10-24T12:36:03.521Z,15.20
2017-10-24T12:38:31.729Z,15.10
2017-10-24T12:41:00.682Z,15.00
2017-10-24T12:43:30.038Z,15.00
2017-10-24T12:48:55.237Z,15.00
2017-10-24T12:51:23.442Z,15.00
2017-10-24T12:53:51.649Z,15.00
2017-10-24T12:56:20.611Z,15.00
2017-10-24T12:58:48.798Z,15.00
2017-10-24T13:01:17.562Z,15.00
2017-10-24T13:03:45.778Z,15.00
2017-10-24T13:06:13.994Z,15.10
2017-10-24T13:08:42.222Z,15.00
2017-10-24T13:11:11.226Z,15.00
2017-10-24T13:13:39.417Z,15.00
2017-10-24T13:16:07.635Z,15.00
2017-10-24T13:18:35.833Z,15.10
2017-10-24T13:21:04.977Z,15.30
2017-10-24T13:23:33.391Z,15.30
2017-10-24T13:26:01.768Z,15.30
2017-10-24T13:28:30.920Z,15.40
2017-10-24T13:30:59.664Z,15.40
2017-10-24T13:33:28.614Z,15.40
2017-10-24T13:35:56.986Z,15.40
2017-10-24T13:38:25.404Z,15.40
2017-10-24T13:40:54.131Z,15.40
2017-10-24T13:43:22.510Z,15.40
2017-10-24T13:45:50.945Z,15.50
2017-10-24T13:48:20.327Z,15.40
2017-10-24T13:50:48.705Z,15.40
2017-10-24T13:53:17.149Z,15.40
2017-10-24T13:55:44.834Z,15.40
2017-10-24T13:58:13.236Z,15.40
2017-10-24T14:00:41.674Z,15.30
2017-10-24T14:03:10.060Z,15.30
2017-10-24T14:05:43.886Z,15.30
2017-10-24T14:08:17.785Z,15.30
2017-10-24T14:10:45.420Z,15.30
2017-10-24T14:13:14.950Z,15.30
2017-10-24T14:15:43.340Z,15.30
2017-10-24T14:18:11.753Z,15.30
2017-10-24T14:20:40.901Z,15.40
2017-10-24T14:23:09.287Z,15.40
2017-10-24T14:25:37.707Z,15.40
2017-10-24T14:28:06.864Z,15.30
2017-10-24T14:30:35.261Z,15.30
2017-10-24T14:33:03.649Z,15.30
2017-10-24T14:35:32.887Z,15.20
2017-10-24T14:38:01.282Z,15.20
2017-10-24T14:40:30.311Z,15.20
2017-10-24T14:42:59.465Z,15.10
2017-10-24T14:45:27.892Z,15.10
2017-10-24T14:47:56.294Z,15.10
2017-10-24T14:50:24.692Z,15.10
2017-10-24T14:52:54.065Z,15.00
2017-10-24T14:55:23.225Z,15.00
2017-10-24T14:57:51.625Z,15.00
2017-10-24T15:00:20.769Z,15.00
2017-10-24T15:02:49.187Z,15.00
2017-10-24T15:05:17.814Z,15.00
2017-10-24T15:07:46.186Z,15.10
2017-10-24T15:10:14.588Z,15.10
2017-10-24T15:12:42.980Z,15.10
2017-10-24T15:15:11.364Z,15.10
2017-10-24T15:17:39.823Z,14.90
2017-10-24T15:20:08.529Z,15.00
2017-10-24T15:27:36.518Z,14.90
2017-10-24T15:30:04.918Z,14.90
2017-10-24T15:32:33.317Z,14.80
2017-10-24T15:35:01.691Z,14.80
2017-10-24T15:37:30.066Z,14.70
2017-10-24T15:39:58.462Z,14.70
2017-10-24T15:42:27.614Z,14.70
2017-10-24T15:44:56.091Z,14.70
2017-10-24T15:47:24.488Z,14.60
2017-10-24T15:49:54.006Z,14.60
2017-10-24T15:52:22.374Z,14.60
2017-10-24T15:54:50.812Z,14.60
2017-10-24T15:57:19.179Z,14.60
2017-10-24T15:59:50.326Z,14.60
2017-10-24T16:02:18.514Z,14.60
2017-10-24T16:04:47.504Z,14.60
2017-10-24T16:07:15.906Z,14.60
2017-10-24T16:09:44.289Z,14.60
2017-10-24T16:12:12.735Z,14.60
2017-10-24T16:14:41.213Z,14.60
2017-10-24T16:17:09.698Z,14.60
2017-10-24T16:19:38.077Z,14.60
2017-10-24T16:22:06.475Z,14.60
2017-10-24T16:24:34.850Z,14.60
2017-10-24T16:27:04.033Z,14.50
2017-10-24T16:29:32.439Z,14.50
2017-10-24T16:32:00.857Z,14.50
2017-10-24T16:34:30.002Z,14.60
2017-10-24T16:36:58.458Z,14.60
2017-10-24T16:39:26.835Z,14.60
2017-10-24T16:41:55.204Z,14.60
2017-10-24T16:44:23.410Z,14.60
2017-10-24T16:46:51.831Z,14.60
2017-10-24T16:49:20.986Z,14.60
2017-10-24T16:51:49.392Z,14.60
2017-10-24T16:54:17.847Z,14.60
2017-10-24T16:56:46.219Z,14.60
2017-10-24T17:05:01.579Z,14.50
2017-10-24T17:07:30.537Z,14.50
2017-10-24T17:09:58.727Z,14.50
2017-10-24T17:12:26.959Z,14.60
2017-10-24T17:14:55.150Z,14.50
2017-10-24T17:17:25.374Z,14.60
2017-10-24T17:19:53.786Z,14.50
2017-10-24T17:22:22.930Z,14.60
2017-10-24T17:24:51.311Z,14.50
2017-10-24T17:27:19.710Z,14.60
2017-10-24T17:29:48.083Z,14.60
2017-10-24T17:32:16.473Z,14.60
2017-10-24T17:34:44.890Z,14.60
2017-10-24T17:37:14.030Z,14.50
2017-10-24T17:39:42.416Z,14.50
2017-10-24T17:42:10.813Z,14.60
2017-10-24T17:44:39.200Z,14.60
2017-10-24T17:47:07.622Z,14.60
2017-10-24T17:49:36.033Z,14.60
2017-10-24T17:52:07.110Z,14.60
2017-10-24T17:54:36.266Z,14.60
2017-10-24T17:57:04.342Z,14.60
2017-10-24T17:59:32.800Z,14.60
2017-10-24T18:02:01.207Z,14.60
2017-10-24T18:04:29.590Z,14.60
2017-10-24T18:06:57.981Z,14.60
2017-10-24T18:09:26.399Z,14.60
2017-10-24T18:11:54.770Z,14.60
2017-10-24T18:14:23.154Z,14.60
2017-10-24T18:16:51.559Z,14.60
2017-10-24T18:19:19.947Z,14.60
2017-10-24T18:21:48.342Z,14.60
2017-10-24T18:24:16.745Z,14.50
2017-10-24T18:26:45.909Z,14.60
2017-10-24T18:29:14.372Z,14.60
2017-10-24T18:31:42.771Z,14.60
2017-10-24T18:34:11.161Z,14.60
2017-10-24T18:36:40.345Z,14.70
2017-10-24T18:39:08.849Z,14.70
2017-10-24T18:41:37.995Z,14.70
2017-10-24T18:44:06.400Z,14.70
2017-10-24T18:46:34.798Z,14.70
2017-10-24T18:49:03.756Z,14.70
2017-10-24T18:51:32.986Z,14.70
2017-10-24T18:54:01.426Z,14.70
2017-10-24T18:56:29.836Z,14.70
2017-10-24T18:58:58.040Z,14.80
2017-10-24T19:01:26.255Z,14.80
2017-10-24T19:03:54.462Z,14.80
2017-10-24T19:06:22.904Z,14.80
2017-10-24T19:08:51.285Z,14.80
2017-10-24T19:11:19.621Z,14.80
2017-10-24T19:13:48.151Z,14.80
2017-10-24T19:16:16.640Z,14.80
2017-10-24T19:18:44.844Z,14.80
2017-10-24T19:21:14.002Z,14.80
2017-10-24T19:23:42.399Z,14.80
2017-10-24T19:26:11.920Z,14.80
2017-10-24T19:28:41.098Z,15.00
2017-10-24T19:31:09.521Z,14.70
2017-10-24T19:33:37.894Z,14.80
2017-10-24T19:36:06.286Z,14.80
2017-10-24T19:38:34.677Z,14.80
2017-10-24T19:41:03.076Z,14.80
2017-10-24T19:43:31.469Z,14.90
2017-10-24T19:46:01.279Z,14.90
2017-10-24T19:48:29.655Z,14.90
2017-10-24T19:50:58.038Z,14.80
2017-10-24T19:53:26.448Z,14.80
2017-10-24T19:55:55.602Z,14.90
2017-10-24T19:58:23.990Z,14.80
2017-10-24T20:00:51.702Z,14.90
2017-10-24T20:03:20.081Z,14.90
2017-10-24T20:05:48.503Z,15.00
2017-10-24T20:08:16.719Z,14.90
2017-10-24T20:10:45.861Z,15.00
2017-10-24T20:13:14.241Z,15.00
2017-10-24T20:15:42.508Z,15.00
2017-10-24T20:18:10.915Z,14.90
2017-10-24T20:20:39.403Z,14.90
2017-10-24T20:23:07.820Z,14.90
2017-10-24T20:25:36.199Z,15.00
2017-10-24T20:28:04.590Z,15.00
2017-10-24T20:30:32.998Z,15.00
2017-10-24T20:33:01.415Z,15.00
2017-10-24T20:35:30.051Z,15.00
2017-10-24T20:37:58.458Z,15.00
2017-10-24T20:40:26.849Z,15.00
2017-10-24T20:42:56.011Z,15.00
2017-10-24T20:45:24.410Z,15.00
2017-10-24T20:47:53.581Z,15.10
2017-10-24T20:50:21.985Z,15.10
2017-10-24T20:52:50.386Z,15.10
2017-10-24T20:55:19.542Z,15.10
2017-10-24T20:57:47.922Z,15.10
2017-10-24T21:00:15.966Z,15.10
2017-10-24T21:02:44.346Z,15.10
2017-10-24T21:05:12.745Z,15.10
2017-10-24T21:07:41.166Z,15.10
2017-10-24T21:10:10.317Z,15.10
2017-10-24T21:12:38.728Z,15.10
2017-10-24T21:15:07.159Z,15.10
2017-10-24T21:17:37.433Z,15.20
2017-10-24T21:20:05.823Z,15.10
2017-10-24T21:22:34.990Z,15.10
2017-10-24T21:25:03.391Z,15.10
2017-10-24T21:27:32.542Z,15.10
2017-10-24T21:30:02.321Z,15.10
2017-10-24T21:32:30.979Z,15.20
2017-10-24T21:34:59.362Z,15.20
2017-10-24T21:37:28.562Z,15.20
2017-10-24T21:39:57.709Z,15.20
2017-10-24T21:42:26.124Z,15.20
2017-10-24T21:44:54.523Z,15.20
2017-10-24T21:47:23.669Z,15.20
2017-10-24T21:49:52.050Z,15.20
2017-10-24T21:52:20.450Z,15.20
2017-10-24T21:54:48.830Z,15.20
2017-10-24T21:57:17.203Z,15.20
2017-10-24T21:59:45.604Z,15.20
2017-10-24T22:02:14.803Z,15.20
2017-10-24T22:04:44.022Z,15.20
2017-10-24T22:07:12.307Z,15.20
2017-10-24T22:09:40.592Z,15.20
2017-10-24T22:12:09.013Z,15.20
2017-10-24T22:14:37.469Z,15.20
2017-10-24T22:17:05.910Z,15.20
2017-10-24T22:19:34.343Z,15.20
2017-10-24T22:22:03.701Z,15.30
2017-10-24T22:24:32.141Z,15.20
2017-10-24T22:27:01.346Z,15.20
2017-10-24T22:29:30.326Z,15.30
2017-10-24T22:31:58.719Z,15.20
2017-10-24T22:34:27.868Z,15.20
2017-10-24T22:36:56.319Z,15.20
2017-10-24T22:39:24.700Z,15.20
2017-10-24T22:41:53.085Z,15.20
2017-10-24T22:44:21.501Z,15.20
2017-10-24T22:46:49.881Z,15.30
2017-10-24T22:49:18.259Z,15.20
2017-10-24T22:51:46.656Z,15.30
2017-10-24T22:54:15.811Z,15.20
2017-10-24T22:56:44.206Z,15.20
2017-10-24T22:59:13.382Z,15.30
2017-10-24T23:01:41.778Z,15.20
2017-10-24T23:04:10.146Z,15.30
2017-10-24T23:06:38.540Z,15.30
2017-10-24T23:09:06.926Z,15.30
2017-10-24T23:11:35.306Z,15.30
2017-10-24T23:14:03.706Z,15.30
2017-10-24T23:16:32.863Z,15.30
2017-10-24T23:19:01.254Z,15.30
2017-10-24T23:21:29.674Z,15.30
2017-10-24T23:23:58.062Z,15.20
2017-10-24T23:26:26.470Z,15.30
2017-10-24T23:28:54.870Z,15.30
2017-10-24T23:31:23.257Z,15.20
2017-10-24T23:33:51.638Z,15.20
2017-10-24T23:36:20.044Z,15.20
2017-10-24T23:38:48.423Z,15.30
2017-10-24T23:41:16.815Z,15.30
2017-10-24T23:43:45.213Z,15.30
2017-10-24T23:46:13.714Z,15.30
2017-10-24T23:48:42.100Z,15.30
2017-10-24T23:51:10.493Z,15.20
2017-10-24T23:53:39.663Z,15.30
2017-10-24T23:56:08.039Z,15.20
2017-10-24T23:58:36.446Z,15.30
